sensor_id;sensor_type;location;lat;lon;timestamp;P1;durP1;ratioP1;P2;durP2;ratioP2
19951;SDS011;10137;49.406;19.484;2022-10-16T00:01:03;11.93;;;7.83;;
19951;SDS011;10137;49.406;19.484;2022-10-16T00:03:32;10.47;;;6.67;;
19951;SDS011;10137;49.406;19.484;2022-10-16T00:06:00;11.83;;;7.00;;
19951;SDS011;10137;49.406;19.484;2022-10-16T00:08:28;11.97;;;6.83;;
19951;SDS011;10137;49.406;19.484;2022-10-16T00:10:58;12.37;;;6.87;;
19951;SDS011;10137;49.406;19.484;2022-10-16T00:13:27;11.40;;;7.37;;
19951;SDS011;10137;49.406;19.484;2022-10-16T00:15:56;10.40;;;7.57;;
19951;SDS011;10137;49.406;19.484;2022-10-16T00:18:24;9.50;;;7.23;;
19951;SDS011;10137;49.406;19.484;2022-10-16T00:20:51;10.87;;;7.80;;
19951;SDS011;10137;49.406;19.484;2022-10-16T00:23:18;12.70;;;7.40;;
19951;SDS011;10137;49.406;19.484;2022-10-16T00:25:54;13.97;;;7.53;;
19951;SDS011;10137;49.406;19.484;2022-10-16T00:28:22;10.30;;;7.20;;
19951;SDS011;10137;49.406;19.484;2022-10-16T00:30:50;13.40;;;7.90;;
19951;SDS011;10137;49.406;19.484;2022-10-16T00:33:18;13.77;;;7.93;;
19951;SDS011;10137;49.406;19.484;2022-10-16T00:35:45;10.70;;;7.83;;
19951;SDS011;10137;49.406;19.484;2022-10-16T00:38:13;9.80;;;7.53;;
19951;SDS011;10137;49.406;19.484;2022-10-16T00:40:40;15.53;;;8.00;;
19951;SDS011;10137;49.406;19.484;2022-10-16T00:43:11;13.53;;;7.90;;
19951;SDS011;10137;49.406;19.484;2022-10-16T00:45:40;11.13;;;7.53;;
19951;SDS011;10137;49.406;19.484;2022-10-16T00:48:08;10.30;;;7.67;;
19951;SDS011;10137;49.406;19.484;2022-10-16T00:50:41;14.43;;;8.10;;
19951;SDS011;10137;49.406;19.484;2022-10-16T00:53:09;10.67;;;6.93;;
19951;SDS011;10137;49.406;19.484;2022-10-16T00:55:38;10.97;;;7.63;;
19951;SDS011;10137;49.406;19.484;2022-10-16T00:58:05;13.33;;;7.67;;
19951;SDS011;10137;49.406;19.484;2022-10-16T01:00:32;9.97;;;7.37;;
19951;SDS011;10137;49.406;19.484;2022-10-16T01:03:00;12.53;;;7.57;;
19951;SDS011;10137;49.406;19.484;2022-10-16T01:05:30;10.97;;;7.27;;
19951;SDS011;10137;49.406;19.484;2022-10-16T01:08:12;10.93;;;7.07;;
19951;SDS011;10137;49.406;19.484;2022-10-16T01:10:45;13.07;;;7.40;;
19951;SDS011;10137;49.406;19.484;2022-10-16T01:13:21;9.97;;;6.90;;
19951;SDS011;10137;49.406;19.484;2022-10-16T01:15:52;10.27;;;7.50;;
19951;SDS011;10137;49.406;19.484;2022-10-16T01:18:27;13.07;;;7.57;;
19951;SDS011;10137;49.406;19.484;2022-10-16T01:21:01;12.73;;;7.23;;
19951;SDS011;10137;49.406;19.484;2022-10-16T01:23:36;15.80;;;8.50;;
19951;SDS011;10137;49.406;19.484;2022-10-16T01:29:18;11.80;;;7.17;;
19951;SDS011;10137;49.406;19.484;2022-10-16T01:31:53;14.60;;;7.43;;
19951;SDS011;10137;49.406;19.484;2022-10-16T01:34:25;10.70;;;7.33;;
19951;SDS011;10137;49.406;19.484;2022-10-16T01:37:04;10.57;;;7.00;;
19951;SDS011;10137;49.406;19.484;2022-10-16T01:39:36;11.73;;;7.77;;
19951;SDS011;10137;49.406;19.484;2022-10-16T01:42:07;13.27;;;8.00;;
19951;SDS011;10137;49.406;19.484;2022-10-16T01:44:41;18.20;;;11.20;;
19951;SDS011;10137;49.406;19.484;2022-10-16T01:47:11;14.27;;;8.30;;
19951;SDS011;10137;49.406;19.484;2022-10-16T01:49:40;12.63;;;7.50;;
19951;SDS011;10137;49.406;19.484;2022-10-16T01:52:09;14.10;;;7.33;;
19951;SDS011;10137;49.406;19.484;2022-10-16T01:54:41;11.83;;;7.87;;
19951;SDS011;10137;49.406;19.484;2022-10-16T01:57:11;11.70;;;7.80;;
19951;SDS011;10137;49.406;19.484;2022-10-16T01:59:42;10.63;;;7.67;;
19951;SDS011;10137;49.406;19.484;2022-10-16T02:02:12;13.13;;;7.47;;
19951;SDS011;10137;49.406;19.484;2022-10-16T02:04:42;12.47;;;7.23;;
19951;SDS011;10137;49.406;19.484;2022-10-16T02:07:12;11.40;;;8.10;;
19951;SDS011;10137;49.406;19.484;2022-10-16T02:09:39;15.07;;;7.77;;
19951;SDS011;10137;49.406;19.484;2022-10-16T02:12:08;13.83;;;8.43;;
19951;SDS011;10137;49.406;19.484;2022-10-16T02:14:41;10.80;;;7.77;;
19951;SDS011;10137;49.406;19.484;2022-10-16T02:17:13;11.50;;;8.30;;
19951;SDS011;10137;49.406;19.484;2022-10-16T02:19:42;10.30;;;7.43;;
19951;SDS011;10137;49.406;19.484;2022-10-16T02:22:14;11.77;;;7.90;;
19951;SDS011;10137;49.406;19.484;2022-10-16T02:24:46;13.40;;;7.83;;
19951;SDS011;10137;49.406;19.484;2022-10-16T02:27:21;13.40;;;7.40;;
19951;SDS011;10137;49.406;19.484;2022-10-16T02:29:55;10.80;;;7.67;;
19951;SDS011;10137;49.406;19.484;2022-10-16T02:32:33;19.33;;;8.03;;
19951;SDS011;10137;49.406;19.484;2022-10-16T02:35:02;12.37;;;7.63;;
19951;SDS011;10137;49.406;19.484;2022-10-16T02:37:30;14.27;;;7.70;;
19951;SDS011;10137;49.406;19.484;2022-10-16T02:39:58;15.10;;;7.80;;
19951;SDS011;10137;49.406;19.484;2022-10-16T02:42:29;12.47;;;7.00;;
19951;SDS011;10137;49.406;19.484;2022-10-16T02:45:01;11.67;;;7.50;;
19951;SDS011;10137;49.406;19.484;2022-10-16T02:47:28;10.23;;;7.53;;
19951;SDS011;10137;49.406;19.484;2022-10-16T02:49:55;15.83;;;7.57;;
19951;SDS011;10137;49.406;19.484;2022-10-16T02:52:22;12.43;;;7.97;;
19951;SDS011;10137;49.406;19.484;2022-10-16T02:54:49;11.57;;;7.23;;
19951;SDS011;10137;49.406;19.484;2022-10-16T02:57:17;13.47;;;7.73;;
19951;SDS011;10137;49.406;19.484;2022-10-16T02:59:44;16.07;;;8.20;;
19951;SDS011;10137;49.406;19.484;2022-10-16T03:02:13;14.47;;;8.47;;
19951;SDS011;10137;49.406;19.484;2022-10-16T03:04:40;17.87;;;9.13;;
19951;SDS011;10137;49.406;19.484;2022-10-16T03:07:07;16.00;;;8.33;;
19951;SDS011;10137;49.406;19.484;2022-10-16T03:09:34;14.90;;;8.13;;
19951;SDS011;10137;49.406;19.484;2022-10-16T03:12:01;14.53;;;7.90;;
19951;SDS011;10137;49.406;19.484;2022-10-16T03:14:29;15.23;;;7.80;;
19951;SDS011;10137;49.406;19.484;2022-10-16T03:16:56;14.03;;;8.60;;
19951;SDS011;10137;49.406;19.484;2022-10-16T03:19:24;13.87;;;8.87;;
19951;SDS011;10137;49.406;19.484;2022-10-16T03:21:52;17.30;;;9.40;;
19951;SDS011;10137;49.406;19.484;2022-10-16T03:24:19;19.57;;;9.67;;
19951;SDS011;10137;49.406;19.484;2022-10-16T03:26:46;17.70;;;9.23;;
19951;SDS011;10137;49.406;19.484;2022-10-16T03:29:13;33.73;;;9.77;;
19951;SDS011;10137;49.406;19.484;2022-10-16T03:31:40;33.17;;;9.97;;
19951;SDS011;10137;49.406;19.484;2022-10-16T03:34:07;44.10;;;11.87;;
19951;SDS011;10137;49.406;19.484;2022-10-16T03:36:36;60.43;;;18.50;;
19951;SDS011;10137;49.406;19.484;2022-10-16T03:39:03;34.30;;;13.23;;
19951;SDS011;10137;49.406;19.484;2022-10-16T03:41:30;49.50;;;16.77;;
19951;SDS011;10137;49.406;19.484;2022-10-16T03:43:57;41.70;;;12.00;;
19951;SDS011;10137;49.406;19.484;2022-10-16T03:46:24;41.47;;;12.30;;
19951;SDS011;10137;49.406;19.484;2022-10-16T03:48:51;35.13;;;12.37;;
19951;SDS011;10137;49.406;19.484;2022-10-16T03:51:18;43.90;;;11.80;;
19951;SDS011;10137;49.406;19.484;2022-10-16T03:53:46;34.10;;;10.87;;
19951;SDS011;10137;49.406;19.484;2022-10-16T03:56:13;29.23;;;10.27;;
19951;SDS011;10137;49.406;19.484;2022-10-16T03:58:40;30.93;;;10.30;;
19951;SDS011;10137;49.406;19.484;2022-10-16T04:01:07;30.33;;;10.03;;
19951;SDS011;10137;49.406;19.484;2022-10-16T04:03:34;26.43;;;9.30;;
19951;SDS011;10137;49.406;19.484;2022-10-16T04:06:02;33.30;;;10.47;;
19951;SDS011;10137;49.406;19.484;2022-10-16T04:08:29;29.90;;;10.50;;
19951;SDS011;10137;49.406;19.484;2022-10-16T04:11:00;27.00;;;10.20;;
19951;SDS011;10137;49.406;19.484;2022-10-16T04:13:28;33.23;;;10.53;;
19951;SDS011;10137;49.406;19.484;2022-10-16T04:15:55;29.70;;;9.70;;
19951;SDS011;10137;49.406;19.484;2022-10-16T04:18:23;31.37;;;9.70;;
19951;SDS011;10137;49.406;19.484;2022-10-16T04:20:52;27.43;;;9.90;;
19951;SDS011;10137;49.406;19.484;2022-10-16T04:23:19;18.57;;;9.33;;
19951;SDS011;10137;49.406;19.484;2022-10-16T04:25:48;21.90;;;8.90;;
19951;SDS011;10137;49.406;19.484;2022-10-16T04:28:16;28.40;;;10.30;;
19951;SDS011;10137;49.406;19.484;2022-10-16T04:30:44;32.87;;;10.60;;
19951;SDS011;10137;49.406;19.484;2022-10-16T04:33:11;27.27;;;9.77;;
19951;SDS011;10137;49.406;19.484;2022-10-16T04:35:39;30.37;;;10.57;;
19951;SDS011;10137;49.406;19.484;2022-10-16T04:38:06;30.57;;;9.93;;
19951;SDS011;10137;49.406;19.484;2022-10-16T04:40:33;36.87;;;10.90;;
19951;SDS011;10137;49.406;19.484;2022-10-16T04:43:01;37.50;;;17.87;;
19951;SDS011;10137;49.406;19.484;2022-10-16T04:45:30;38.97;;;13.67;;
19951;SDS011;10137;49.406;19.484;2022-10-16T04:47:57;33.77;;;14.90;;
19951;SDS011;10137;49.406;19.484;2022-10-16T04:50:25;33.07;;;11.80;;
19951;SDS011;10137;49.406;19.484;2022-10-16T04:52:52;29.73;;;11.67;;
19951;SDS011;10137;49.406;19.484;2022-10-16T04:55:20;18.23;;;11.17;;
19951;SDS011;10137;49.406;19.484;2022-10-16T04:57:47;22.13;;;10.07;;
19951;SDS011;10137;49.406;19.484;2022-10-16T05:00:14;14.83;;;8.93;;
19951;SDS011;10137;49.406;19.484;2022-10-16T05:02:42;16.40;;;9.23;;
19951;SDS011;10137;49.406;19.484;2022-10-16T05:05:10;21.93;;;9.27;;
19951;SDS011;10137;49.406;19.484;2022-10-16T05:07:37;19.13;;;9.37;;
19951;SDS011;10137;49.406;19.484;2022-10-16T05:10:04;14.37;;;9.17;;
19951;SDS011;10137;49.406;19.484;2022-10-16T05:12:32;22.00;;;9.73;;
19951;SDS011;10137;49.406;19.484;2022-10-16T05:14:59;19.73;;;9.60;;
19951;SDS011;10137;49.406;19.484;2022-10-16T05:17:26;20.30;;;10.23;;
19951;SDS011;10137;49.406;19.484;2022-10-16T05:19:54;19.37;;;9.97;;
19951;SDS011;10137;49.406;19.484;2022-10-16T05:22:22;18.00;;;9.67;;
19951;SDS011;10137;49.406;19.484;2022-10-16T05:24:49;21.57;;;9.83;;
19951;SDS011;10137;49.406;19.484;2022-10-16T05:27:16;25.53;;;10.13;;
19951;SDS011;10137;49.406;19.484;2022-10-16T05:29:45;17.80;;;9.93;;
19951;SDS011;10137;49.406;19.484;2022-10-16T05:32:12;20.13;;;9.97;;
19951;SDS011;10137;49.406;19.484;2022-10-16T05:34:40;20.67;;;10.17;;
19951;SDS011;10137;49.406;19.484;2022-10-16T05:37:08;22.67;;;10.67;;
19951;SDS011;10137;49.406;19.484;2022-10-16T05:39:36;24.10;;;11.00;;
19951;SDS011;10137;49.406;19.484;2022-10-16T05:42:03;30.83;;;10.90;;
19951;SDS011;10137;49.406;19.484;2022-10-16T05:44:31;21.80;;;10.10;;
19951;SDS011;10137;49.406;19.484;2022-10-16T05:46:58;23.77;;;11.17;;
19951;SDS011;10137;49.406;19.484;2022-10-16T05:49:25;23.43;;;10.47;;
19951;SDS011;10137;49.406;19.484;2022-10-16T05:51:52;20.33;;;10.13;;
19951;SDS011;10137;49.406;19.484;2022-10-16T05:54:21;26.75;;;14.18;;
19951;SDS011;10137;49.406;19.484;2022-10-16T05:56:48;20.77;;;11.23;;
19951;SDS011;10137;49.406;19.484;2022-10-16T05:59:15;15.83;;;10.40;;
19951;SDS011;10137;49.406;19.484;2022-10-16T06:01:43;14.97;;;10.20;;
19951;SDS011;10137;49.406;19.484;2022-10-16T06:04:10;18.60;;;9.80;;
19951;SDS011;10137;49.406;19.484;2022-10-16T06:06:37;23.20;;;12.80;;
19951;SDS011;10137;49.406;19.484;2022-10-16T06:09:04;68.43;;;39.67;;
19951;SDS011;10137;49.406;19.484;2022-10-16T06:11:32;91.03;;;46.77;;
19951;SDS011;10137;49.406;19.484;2022-10-16T06:14:00;54.53;;;31.07;;
19951;SDS011;10137;49.406;19.484;2022-10-16T06:16:31;60.90;;;30.63;;
19951;SDS011;10137;49.406;19.484;2022-10-16T06:18:59;21.47;;;12.53;;
19951;SDS011;10137;49.406;19.484;2022-10-16T06:21:26;20.13;;;10.57;;
19951;SDS011;10137;49.406;19.484;2022-10-16T06:23:54;16.73;;;8.57;;
19951;SDS011;10137;49.406;19.484;2022-10-16T06:26:23;27.90;;;14.57;;
19951;SDS011;10137;49.406;19.484;2022-10-16T06:28:53;11.63;;;7.80;;
19951;SDS011;10137;49.406;19.484;2022-10-16T06:31:20;12.97;;;8.37;;
19951;SDS011;10137;49.406;19.484;2022-10-16T06:33:50;15.70;;;7.90;;
19951;SDS011;10137;49.406;19.484;2022-10-16T06:36:17;10.90;;;7.70;;
19951;SDS011;10137;49.406;19.484;2022-10-16T06:38:45;17.53;;;10.07;;
19951;SDS011;10137;49.406;19.484;2022-10-16T06:41:12;22.50;;;12.53;;
19951;SDS011;10137;49.406;19.484;2022-10-16T06:43:40;13.07;;;8.40;;
19951;SDS011;10137;49.406;19.484;2022-10-16T06:46:11;14.33;;;8.47;;
19951;SDS011;10137;49.406;19.484;2022-10-16T06:48:39;15.20;;;7.93;;
19951;SDS011;10137;49.406;19.484;2022-10-16T06:51:08;16.87;;;8.70;;
19951;SDS011;10137;49.406;19.484;2022-10-16T06:53:38;12.07;;;8.03;;
19951;SDS011;10137;49.406;19.484;2022-10-16T06:56:06;32.87;;;17.20;;
19951;SDS011;10137;49.406;19.484;2022-10-16T06:58:35;13.10;;;8.00;;
19951;SDS011;10137;49.406;19.484;2022-10-16T07:01:02;22.40;;;12.50;;
19951;SDS011;10137;49.406;19.484;2022-10-16T07:03:31;21.57;;;12.57;;
19951;SDS011;10137;49.406;19.484;2022-10-16T07:06:01;23.27;;;15.93;;
19951;SDS011;10137;49.406;19.484;2022-10-16T07:08:30;18.70;;;9.73;;
19951;SDS011;10137;49.406;19.484;2022-10-16T07:10:58;26.73;;;17.30;;
19951;SDS011;10137;49.406;19.484;2022-10-16T07:13:26;10.33;;;6.77;;
19951;SDS011;10137;49.406;19.484;2022-10-16T07:15:53;9.87;;;7.37;;
19951;SDS011;10137;49.406;19.484;2022-10-16T07:18:20;10.67;;;7.00;;
19951;SDS011;10137;49.406;19.484;2022-10-16T07:20:52;12.87;;;8.17;;
19951;SDS011;10137;49.406;19.484;2022-10-16T07:23:20;12.43;;;6.43;;
19951;SDS011;10137;49.406;19.484;2022-10-16T07:25:52;11.80;;;6.70;;
19951;SDS011;10137;49.406;19.484;2022-10-16T07:28:21;10.60;;;6.73;;
19951;SDS011;10137;49.406;19.484;2022-10-16T07:30:48;11.27;;;6.53;;
19951;SDS011;10137;49.406;19.484;2022-10-16T07:33:15;10.33;;;6.43;;
19951;SDS011;10137;49.406;19.484;2022-10-16T07:35:47;15.47;;;6.93;;
19951;SDS011;10137;49.406;19.484;2022-10-16T07:38:16;8.87;;;5.70;;
19951;SDS011;10137;49.406;19.484;2022-10-16T07:40:44;19.73;;;8.30;;
19951;SDS011;10137;49.406;19.484;2022-10-16T07:43:11;15.57;;;8.23;;
19951;SDS011;10137;49.406;19.484;2022-10-16T07:45:46;16.77;;;6.40;;
19951;SDS011;10137;49.406;19.484;2022-10-16T07:48:14;11.93;;;6.20;;
19951;SDS011;10137;49.406;19.484;2022-10-16T07:50:41;15.88;;;6.35;;
19951;SDS011;10137;49.406;19.484;2022-10-16T07:53:08;12.15;;;6.40;;
19951;SDS011;10137;49.406;19.484;2022-10-16T07:55:37;15.70;;;5.97;;
19951;SDS011;10137;49.406;19.484;2022-10-16T07:58:04;13.75;;;6.75;;
19951;SDS011;10137;49.406;19.484;2022-10-16T08:00:32;9.27;;;5.75;;
19951;SDS011;10137;49.406;19.484;2022-10-16T08:02:59;9.95;;;5.32;;
19951;SDS011;10137;49.406;19.484;2022-10-16T08:05:27;12.68;;;5.85;;
19951;SDS011;10137;49.406;19.484;2022-10-16T08:07:54;11.15;;;5.35;;
19951;SDS011;10137;49.406;19.484;2022-10-16T08:10:22;8.85;;;4.90;;
19951;SDS011;10137;49.406;19.484;2022-10-16T08:12:52;7.25;;;5.18;;
19951;SDS011;10137;49.406;19.484;2022-10-16T08:15:19;8.80;;;5.63;;
19951;SDS011;10137;49.406;19.484;2022-10-16T08:17:53;11.65;;;5.22;;
19951;SDS011;10137;49.406;19.484;2022-10-16T08:20:21;6.97;;;4.75;;
19951;SDS011;10137;49.406;19.484;2022-10-16T08:22:48;9.40;;;5.32;;
19951;SDS011;10137;49.406;19.484;2022-10-16T08:25:15;7.60;;;5.05;;
19951;SDS011;10137;49.406;19.484;2022-10-16T08:27:42;9.63;;;5.13;;
19951;SDS011;10137;49.406;19.484;2022-10-16T08:30:11;12.10;;;5.22;;
19951;SDS011;10137;49.406;19.484;2022-10-16T08:32:39;13.27;;;5.40;;
19951;SDS011;10137;49.406;19.484;2022-10-16T08:35:07;7.05;;;5.35;;
19951;SDS011;10137;49.406;19.484;2022-10-16T08:37:35;10.95;;;4.88;;
19951;SDS011;10137;49.406;19.484;2022-10-16T08:40:03;9.15;;;5.50;;
19951;SDS011;10137;49.406;19.484;2022-10-16T08:42:36;12.35;;;6.85;;
19951;SDS011;10137;49.406;19.484;2022-10-16T08:45:21;9.95;;;6.20;;
19951;SDS011;10137;49.406;19.484;2022-10-16T08:48:00;9.55;;;5.97;;
19951;SDS011;10137;49.406;19.484;2022-10-16T08:50:36;6.85;;;5.30;;
19951;SDS011;10137;49.406;19.484;2022-10-16T08:53:05;8.15;;;4.78;;
19951;SDS011;10137;49.406;19.484;2022-10-16T08:55:37;8.05;;;5.05;;
19951;SDS011;10137;49.406;19.484;2022-10-16T08:58:12;6.63;;;4.72;;
19951;SDS011;10137;49.406;19.484;2022-10-16T09:00:42;6.97;;;4.30;;
19951;SDS011;10137;49.406;19.484;2022-10-16T09:03:14;9.68;;;4.57;;
19951;SDS011;10137;49.406;19.484;2022-10-16T09:05:53;6.32;;;5.00;;
19951;SDS011;10137;49.406;19.484;2022-10-16T09:08:29;8.45;;;4.93;;
19951;SDS011;10137;49.406;19.484;2022-10-16T09:11:03;7.60;;;4.82;;
19951;SDS011;10137;49.406;19.484;2022-10-16T09:13:39;8.75;;;4.90;;
19951;SDS011;10137;49.406;19.484;2022-10-16T09:16:17;8.82;;;5.07;;
19951;SDS011;10137;49.406;19.484;2022-10-16T09:18:48;6.10;;;4.97;;
19951;SDS011;10137;49.406;19.484;2022-10-16T09:21:23;9.68;;;4.85;;
19951;SDS011;10137;49.406;19.484;2022-10-16T09:23:54;6.63;;;5.07;;
19951;SDS011;10137;49.406;19.484;2022-10-16T09:26:25;7.97;;;5.22;;
19951;SDS011;10137;49.406;19.484;2022-10-16T09:28:52;6.60;;;5.13;;
19951;SDS011;10137;49.406;19.484;2022-10-16T09:31:22;9.33;;;5.83;;
19951;SDS011;10137;49.406;19.484;2022-10-16T09:33:52;7.97;;;5.20;;
19951;SDS011;10137;49.406;19.484;2022-10-16T09:36:20;10.13;;;5.67;;
19951;SDS011;10137;49.406;19.484;2022-10-16T09:38:50;6.87;;;4.93;;
19951;SDS011;10137;49.406;19.484;2022-10-16T09:41:29;10.40;;;5.23;;
19951;SDS011;10137;49.406;19.484;2022-10-16T09:43:56;7.87;;;5.50;;
19951;SDS011;10137;49.406;19.484;2022-10-16T09:46:28;10.73;;;5.10;;
19951;SDS011;10137;49.406;19.484;2022-10-16T09:48:57;11.77;;;5.03;;
19951;SDS011;10137;49.406;19.484;2022-10-16T09:51:26;6.35;;;4.63;;
19951;SDS011;10137;49.406;19.484;2022-10-16T09:53:55;10.23;;;4.22;;
19951;SDS011;10137;49.406;19.484;2022-10-16T09:56:24;8.45;;;4.72;;
19951;SDS011;10137;49.406;19.484;2022-10-16T09:58:56;7.30;;;4.97;;
19951;SDS011;10137;49.406;19.484;2022-10-16T10:01:28;12.23;;;5.30;;
19951;SDS011;10137;49.406;19.484;2022-10-16T10:04:01;6.20;;;4.32;;
19951;SDS011;10137;49.406;19.484;2022-10-16T10:06:29;7.28;;;4.63;;
19951;SDS011;10137;49.406;19.484;2022-10-16T10:08:59;6.63;;;4.60;;
19951;SDS011;10137;49.406;19.484;2022-10-16T10:11:39;5.80;;;4.25;;
19951;SDS011;10137;49.406;19.484;2022-10-16T10:14:13;9.95;;;4.93;;
19951;SDS011;10137;49.406;19.484;2022-10-16T10:16:46;7.55;;;5.10;;
19951;SDS011;10137;49.406;19.484;2022-10-16T10:19:14;8.20;;;4.80;;
19951;SDS011;10137;49.406;19.484;2022-10-16T10:21:42;9.98;;;4.80;;
19951;SDS011;10137;49.406;19.484;2022-10-16T10:24:11;18.95;;;5.40;;
19951;SDS011;10137;49.406;19.484;2022-10-16T10:26:38;10.43;;;5.35;;
19951;SDS011;10137;49.406;19.484;2022-10-16T10:29:12;9.23;;;5.15;;
19951;SDS011;10137;49.406;19.484;2022-10-16T10:31:44;10.38;;;5.30;;
19951;SDS011;10137;49.406;19.484;2022-10-16T10:34:23;11.05;;;5.20;;
19951;SDS011;10137;49.406;19.484;2022-10-16T10:37:00;7.47;;;5.07;;
19951;SDS011;10137;49.406;19.484;2022-10-16T10:39:32;9.20;;;5.00;;
19951;SDS011;10137;49.406;19.484;2022-10-16T10:42:14;10.15;;;5.70;;
19951;SDS011;10137;49.406;19.484;2022-10-16T10:50:48;8.35;;;5.07;;
19951;SDS011;10137;49.406;19.484;2022-10-16T10:53:21;7.60;;;5.20;;
19951;SDS011;10137;49.406;19.484;2022-10-16T10:56:00;8.00;;;5.50;;
19951;SDS011;10137;49.406;19.484;2022-10-16T10:58:46;8.38;;;5.25;;
19951;SDS011;10137;49.406;19.484;2022-10-16T11:01:25;8.15;;;5.75;;
19951;SDS011;10137;49.406;19.484;2022-10-16T11:04:05;7.88;;;5.75;;
19951;SDS011;10137;49.406;19.484;2022-10-16T11:06:47;10.25;;;5.68;;
19951;SDS011;10137;49.406;19.484;2022-10-16T11:09:18;9.95;;;5.45;;
19951;SDS011;10137;49.406;19.484;2022-10-16T11:11:49;8.68;;;4.75;;
19951;SDS011;10137;49.406;19.484;2022-10-16T11:14:21;11.43;;;4.93;;
19951;SDS011;10137;49.406;19.484;2022-10-16T11:16:53;9.88;;;6.43;;
19951;SDS011;10137;49.406;19.484;2022-10-16T11:19:28;7.10;;;4.97;;
19951;SDS011;10137;49.406;19.484;2022-10-16T11:22:02;8.65;;;4.80;;
19951;SDS011;10137;49.406;19.484;2022-10-16T11:24:35;8.57;;;5.80;;
19951;SDS011;10137;49.406;19.484;2022-10-16T11:27:08;7.75;;;5.10;;
19951;SDS011;10137;49.406;19.484;2022-10-16T11:29:41;9.15;;;5.40;;
19951;SDS011;10137;49.406;19.484;2022-10-16T11:32:19;13.55;;;5.70;;
19951;SDS011;10137;49.406;19.484;2022-10-16T11:34:52;18.17;;;5.60;;
19951;SDS011;10137;49.406;19.484;2022-10-16T11:37:23;15.00;;;5.60;;
19951;SDS011;10137;49.406;19.484;2022-10-16T11:39:54;17.95;;;6.20;;
19951;SDS011;10137;49.406;19.484;2022-10-16T11:42:30;26.10;;;6.60;;
19951;SDS011;10137;49.406;19.484;2022-10-16T11:45:07;13.50;;;6.07;;
19951;SDS011;10137;49.406;19.484;2022-10-16T11:47:48;15.63;;;5.45;;
19951;SDS011;10137;49.406;19.484;2022-10-16T11:50:23;19.23;;;5.97;;
19951;SDS011;10137;49.406;19.484;2022-10-16T11:52:55;13.65;;;5.85;;
19951;SDS011;10137;49.406;19.484;2022-10-16T11:55:28;21.40;;;6.55;;
19951;SDS011;10137;49.406;19.484;2022-10-16T11:58:00;19.48;;;6.70;;
19951;SDS011;10137;49.406;19.484;2022-10-16T12:00:31;12.38;;;5.35;;
19951;SDS011;10137;49.406;19.484;2022-10-16T12:03:05;16.27;;;5.90;;
19951;SDS011;10137;49.406;19.484;2022-10-16T12:05:55;9.38;;;5.53;;
19951;SDS011;10137;49.406;19.484;2022-10-16T12:08:26;10.20;;;5.60;;
19951;SDS011;10137;49.406;19.484;2022-10-16T12:10:53;9.32;;;5.45;;
19951;SDS011;10137;49.406;19.484;2022-10-16T12:13:33;12.02;;;6.13;;
19951;SDS011;10137;49.406;19.484;2022-10-16T12:16:06;9.70;;;5.57;;
19951;SDS011;10137;49.406;19.484;2022-10-16T12:18:47;10.77;;;5.50;;
19951;SDS011;10137;49.406;19.484;2022-10-16T12:21:16;17.67;;;5.88;;
19951;SDS011;10137;49.406;19.484;2022-10-16T12:23:48;11.07;;;6.20;;
19951;SDS011;10137;49.406;19.484;2022-10-16T12:26:23;11.60;;;5.72;;
19951;SDS011;10137;49.406;19.484;2022-10-16T12:28:51;12.00;;;6.00;;
19951;SDS011;10137;49.406;19.484;2022-10-16T12:31:19;14.25;;;6.25;;
19951;SDS011;10137;49.406;19.484;2022-10-16T12:33:57;21.02;;;6.07;;
19951;SDS011;10137;49.406;19.484;2022-10-16T12:36:28;22.33;;;6.53;;
19951;SDS011;10137;49.406;19.484;2022-10-16T12:38:56;17.98;;;7.75;;
19951;SDS011;10137;49.406;19.484;2022-10-16T12:41:25;14.48;;;6.82;;
19951;SDS011;10137;49.406;19.484;2022-10-16T12:43:54;12.15;;;6.65;;
19951;SDS011;10137;49.406;19.484;2022-10-16T12:46:23;9.93;;;6.13;;
19951;SDS011;10137;49.406;19.484;2022-10-16T12:49:23;11.83;;;6.30;;
19951;SDS011;10137;49.406;19.484;2022-10-16T12:51:59;13.27;;;5.97;;
19951;SDS011;10137;49.406;19.484;2022-10-16T12:54:27;12.63;;;6.27;;
19951;SDS011;10137;49.406;19.484;2022-10-16T12:57:06;8.33;;;6.23;;
19951;SDS011;10137;49.406;19.484;2022-10-16T12:59:48;10.23;;;6.00;;
19951;SDS011;10137;49.406;19.484;2022-10-16T13:02:36;10.87;;;5.97;;
19951;SDS011;10137;49.406;19.484;2022-10-16T13:05:18;12.70;;;6.73;;
19951;SDS011;10137;49.406;19.484;2022-10-16T13:08:04;8.57;;;6.33;;
19951;SDS011;10137;49.406;19.484;2022-10-16T13:10:46;8.07;;;6.30;;
19951;SDS011;10137;49.406;19.484;2022-10-16T13:13:30;11.93;;;6.60;;
19951;SDS011;10137;49.406;19.484;2022-10-16T13:16:11;8.67;;;6.67;;
19951;SDS011;10137;49.406;19.484;2022-10-16T13:18:52;10.03;;;6.50;;
19951;SDS011;10137;49.406;19.484;2022-10-16T13:21:30;10.00;;;6.40;;
19951;SDS011;10137;49.406;19.484;2022-10-16T13:24:09;11.67;;;6.83;;
19951;SDS011;10137;49.406;19.484;2022-10-16T13:26:49;14.17;;;6.50;;
19951;SDS011;10137;49.406;19.484;2022-10-16T13:29:22;12.70;;;6.20;;
19951;SDS011;10137;49.406;19.484;2022-10-16T13:31:49;10.80;;;6.03;;
19951;SDS011;10137;49.406;19.484;2022-10-16T13:34:17;9.73;;;6.63;;
19951;SDS011;10137;49.406;19.484;2022-10-16T13:36:47;13.00;;;6.80;;
19951;SDS011;10137;49.406;19.484;2022-10-16T13:39:22;11.27;;;6.47;;
19951;SDS011;10137;49.406;19.484;2022-10-16T13:42:03;13.83;;;7.30;;
19951;SDS011;10137;49.406;19.484;2022-10-16T13:44:34;9.90;;;7.40;;
19951;SDS011;10137;49.406;19.484;2022-10-16T13:47:05;8.87;;;7.00;;
19951;SDS011;10137;49.406;19.484;2022-10-16T13:49:32;9.07;;;6.13;;
19951;SDS011;10137;49.406;19.484;2022-10-16T13:51:59;10.90;;;6.67;;
19951;SDS011;10137;49.406;19.484;2022-10-16T13:54:28;11.03;;;6.37;;
19951;SDS011;10137;49.406;19.484;2022-10-16T13:56:56;10.17;;;6.33;;
19951;SDS011;10137;49.406;19.484;2022-10-16T13:59:32;9.70;;;7.20;;
19951;SDS011;10137;49.406;19.484;2022-10-16T14:02:04;10.53;;;6.13;;
19951;SDS011;10137;49.406;19.484;2022-10-16T14:04:43;10.87;;;6.67;;
19951;SDS011;10137;49.406;19.484;2022-10-16T14:07:13;9.60;;;6.50;;
19951;SDS011;10137;49.406;19.484;2022-10-16T14:09:48;13.20;;;6.87;;
19951;SDS011;10137;49.406;19.484;2022-10-16T14:12:16;8.83;;;6.47;;
19951;SDS011;10137;49.406;19.484;2022-10-16T14:14:44;11.00;;;6.50;;
19951;SDS011;10137;49.406;19.484;2022-10-16T14:17:13;8.23;;;6.20;;
19951;SDS011;10137;49.406;19.484;2022-10-16T14:19:45;10.13;;;6.93;;
19951;SDS011;10137;49.406;19.484;2022-10-16T14:25:19;9.60;;;6.53;;
19951;SDS011;10137;49.406;19.484;2022-10-16T14:27:59;9.30;;;6.87;;
19951;SDS011;10137;49.406;19.484;2022-10-16T14:30:27;13.40;;;7.63;;
19951;SDS011;10137;49.406;19.484;2022-10-16T14:32:55;14.77;;;8.73;;
19951;SDS011;10137;49.406;19.484;2022-10-16T14:35:25;13.10;;;8.47;;
19951;SDS011;10137;49.406;19.484;2022-10-16T14:37:56;16.60;;;9.63;;
19951;SDS011;10137;49.406;19.484;2022-10-16T14:40:27;17.90;;;10.30;;
19951;SDS011;10137;49.406;19.484;2022-10-16T14:42:55;13.30;;;8.67;;
19951;SDS011;10137;49.406;19.484;2022-10-16T14:45:24;14.07;;;7.93;;
19951;SDS011;10137;49.406;19.484;2022-10-16T14:47:55;13.53;;;7.20;;
19951;SDS011;10137;49.406;19.484;2022-10-16T14:50:25;14.50;;;7.93;;
19951;SDS011;10137;49.406;19.484;2022-10-16T14:52:52;12.57;;;8.57;;
19951;SDS011;10137;49.406;19.484;2022-10-16T14:55:19;12.37;;;8.03;;